CheckWX is a tool to help pilots better visualize weather data.  It is not intended as a substitute for an official pre-flight weather briefing.

14:47:25 UTC

KIOW METAR
Iowa City Municipal Airport
Iowa City, Iowa, USA
Current

55 mins ago

KIOW 221352Z AUTO 16010KT 8SM -RA BKN090 OVC100 18/12 A2989 RMK AO2 RAB44 SLP118 P0001 T01780117
Observed
Apr-22 @ 13:52 UTC
Wind
  • 160° at 10 KTS
Visibility
8 SM
Flight Rules
VFR
Conditions
Light Rain
Cloud Levels
  • Broken at 9,000' AGL
  • Overcast at 10,000' AGL
Temperature
18°C / 64°F
Dewpoint
12°C / 54°F
Humidity
68%
Altimeter
29.89" Hg
Pressure
1012.22 hPa
Current Rain
0.01"
Previous

2 hours ago

KIOW 221252Z AUTO 14007KT 10SM CLR 18/11 A2989 RMK AO2 SLP119 T01830106
Observed
Apr-22 @ 12:52 UTC
Wind
  • 140° at 7 KTS
Visibility
10 SM
Flight Rules
VFR
Cloud Levels
  • Clear skies
Temperature
18°C / 64°F
Dewpoint
11°C / 52°F
Humidity
64%
Altimeter
29.89" Hg
Pressure
1012.22 hPa
Previous

3 hours ago

KIOW 221152Z AUTO 14007KT 10SM CLR 17/09 A2991 RMK AO2 SLP125 T01670094 10172 20144 55001
Observed
Apr-22 @ 11:52 UTC
Wind
  • 140° at 7 KTS
Visibility
10 SM
Flight Rules
VFR
Cloud Levels
  • Clear skies
Temperature
17°C / 63°F
Dewpoint
C / 48°F
Humidity
59%
Altimeter
29.91" Hg
Pressure
1012.92 hPa